createdAt,value
2023-06-28T00:00:04.449Z,45.46
2023-06-28T00:03:11.202Z,45.37
2023-06-28T00:06:14.038Z,45.14
2023-06-28T00:09:16.742Z,45.53
2023-06-28T00:12:22.364Z,45.57
2023-06-28T00:15:25.120Z,45.78
2023-06-28T00:18:31.474Z,46.07
2023-06-28T00:21:34.508Z,46.41
2023-06-28T00:24:37.240Z,46.97
2023-06-28T00:27:41.549Z,46.96
2023-06-28T00:30:44.480Z,46.79
2023-06-28T00:33:47.774Z,47.15
2023-06-28T00:36:51.537Z,46.91
2023-06-28T00:39:55.972Z,46.89
2023-06-28T00:43:00.040Z,47.17
2023-06-28T00:46:03.390Z,47.11
2023-06-28T00:49:13.878Z,47.46
2023-06-28T00:52:16.584Z,47.48
2023-06-28T00:55:22.199Z,47.87
2023-06-28T00:58:26.756Z,47.93
2023-06-28T01:01:30.032Z,47.86
2023-06-28T01:04:41.604Z,48.51
2023-06-28T01:07:46.017Z,48.88
2023-06-28T01:10:50.429Z,48.99
2023-06-28T01:13:54.742Z,49.30
2023-06-28T01:16:57.550Z,49.83
2023-06-28T01:20:01.066Z,50.26
2023-06-28T01:23:06.514Z,50.57
2023-06-28T01:26:10.313Z,50.71
2023-06-28T01:29:13.275Z,51.01
2023-06-28T01:32:18.311Z,51.18
2023-06-28T01:35:21.036Z,51.68
2023-06-28T01:38:27.154Z,51.65
2023-06-28T01:41:30.287Z,52.25
2023-06-28T01:44:34.660Z,52.29
2023-06-28T01:47:37.741Z,52.42
2023-06-28T01:50:40.995Z,52.66
2023-06-28T01:53:45.302Z,52.51
2023-06-28T01:56:48.099Z,52.75
2023-06-28T01:59:50.842Z,52.75
2023-06-28T02:02:54.761Z,52.46
2023-06-28T02:05:57.824Z,52.42
2023-06-28T02:09:02.152Z,52.50
2023-06-28T02:12:05.352Z,52.53
2023-06-28T02:15:09.322Z,52.59
2023-06-28T02:18:12.001Z,52.16
2023-06-28T02:21:15.457Z,52.23
2023-06-28T02:24:21.311Z,52.31
2023-06-28T02:27:24.026Z,52.66
2023-06-28T02:30:26.842Z,52.69
2023-06-28T02:33:29.562Z,52.67
2023-06-28T02:36:32.814Z,52.70
2023-06-28T02:39:36.891Z,52.58
2023-06-28T02:42:39.608Z,52.65
2023-06-28T02:45:42.304Z,52.95
2023-06-28T02:48:45.044Z,52.74
2023-06-28T02:51:47.742Z,52.84
2023-06-28T02:54:51.799Z,52.89
2023-06-28T02:57:55.503Z,53.06
2023-06-28T03:00:58.646Z,52.81
2023-06-28T03:04:01.669Z,53.24
2023-06-28T03:07:04.819Z,53.12
2023-06-28T03:10:10.067Z,53.29
2023-06-28T03:13:12.811Z,53.00
2023-06-28T03:16:16.784Z,53.49
2023-06-28T03:19:19.493Z,53.57
2023-06-28T03:22:28.379Z,53.54
2023-06-28T03:25:32.632Z,53.66
2023-06-28T03:28:35.533Z,53.94
2023-06-28T03:31:38.303Z,54.48
2023-06-28T03:34:41.035Z,55.00
2023-06-28T03:37:50.975Z,54.91
2023-06-28T03:40:57.591Z,54.70
2023-06-28T03:44:00.276Z,54.95
2023-06-28T03:47:07.623Z,55.13
2023-06-28T03:50:11.058Z,55.36
2023-06-28T03:53:13.753Z,55.21
2023-06-28T03:56:17.962Z,55.49
2023-06-28T03:59:21.632Z,55.11
2023-06-28T04:02:24.331Z,54.99
2023-06-28T04:05:27.274Z,55.13
2023-06-28T04:08:29.990Z,55.57
2023-06-28T04:11:33.977Z,55.21
2023-06-28T04:14:36.924Z,55.24
2023-06-28T04:17:39.697Z,55.51
2023-06-28T04:20:43.350Z,55.40
2023-06-28T04:23:46.547Z,55.22
2023-06-28T04:26:50.586Z,55.70
2023-06-28T04:29:53.297Z,55.59
2023-06-28T04:32:55.972Z,55.72
2023-06-28T04:36:02.786Z,55.86
2023-06-28T04:39:05.524Z,56.19
2023-06-28T04:42:09.667Z,55.92
2023-06-28T04:45:12.674Z,55.79
2023-06-28T04:48:15.382Z,55.76
2023-06-28T04:51:18.672Z,56.14
2023-06-28T04:54:21.372Z,55.96
2023-06-28T04:57:25.685Z,55.92
2023-06-28T05:00:28.645Z,56.20
2023-06-28T05:03:33.584Z,55.76
2023-06-28T05:06:37.208Z,56.08
2023-06-28T05:09:40.677Z,56.17
2023-06-28T05:12:44.711Z,55.98
2023-06-28T05:15:47.985Z,55.72
2023-06-28T05:18:50.724Z,55.84
2023-06-28T05:21:55.158Z,55.61
2023-06-28T05:24:57.955Z,55.95
2023-06-28T05:28:01.996Z,56.18
2023-06-28T05:31:04.769Z,55.66
2023-06-28T05:34:07.559Z,55.19
2023-06-28T05:37:10.266Z,54.86
2023-06-28T05:40:14.106Z,54.75
2023-06-28T05:43:18.122Z,54.54
2023-06-28T05:46:20.876Z,53.98
2023-06-28T05:49:26.461Z,53.94
2023-06-28T05:52:29.187Z,53.71
2023-06-28T05:55:32.067Z,53.45
2023-06-28T05:58:36.515Z,53.64
2023-06-28T06:01:39.274Z,53.52
2023-06-28T06:04:41.998Z,53.63
2023-06-28T06:07:44.742Z,53.09
2023-06-28T06:10:47.475Z,53.30
2023-06-28T06:13:51.569Z,52.99
2023-06-28T06:16:55.557Z,52.84
2023-06-28T06:19:58.295Z,52.85
2023-06-28T06:23:01.044Z,52.71
2023-06-28T06:26:03.864Z,52.67
2023-06-28T06:29:08.263Z,52.72
2023-06-28T06:32:11.754Z,52.83
2023-06-28T06:35:15.762Z,52.81
2023-06-28T06:38:18.516Z,52.76
2023-06-28T06:41:25.047Z,52.74
2023-06-28T06:44:32.265Z,52.49
2023-06-28T06:47:36.831Z,52.52
2023-06-28T06:50:39.779Z,52.71
2023-06-28T06:53:42.724Z,53.00
2023-06-28T06:56:45.405Z,52.89
2023-06-28T06:59:49.431Z,53.13
2023-06-28T07:02:52.301Z,52.99
2023-06-28T07:05:55.036Z,52.46
2023-06-28T07:08:59.008Z,52.27
2023-06-28T07:12:01.750Z,51.41
2023-06-28T07:15:06.969Z,51.14
2023-06-28T07:18:09.665Z,50.46
2023-06-28T07:21:15.912Z,49.29
2023-06-28T07:24:18.595Z,48.93
2023-06-28T07:27:24.302Z,48.71
2023-06-28T07:30:32.098Z,48.19
2023-06-28T07:33:35.431Z,47.63
2023-06-28T07:36:38.188Z,47.10
2023-06-28T07:39:40.966Z,46.65
2023-06-28T07:42:43.843Z,46.34
2023-06-28T07:45:48.331Z,45.64
2023-06-28T07:48:51.907Z,45.35
2023-06-28T07:51:54.670Z,44.63
2023-06-28T07:54:57.351Z,43.82
2023-06-28T07:58:00.217Z,42.14
2023-06-28T08:01:08.227Z,41.03
2023-06-28T08:04:13.367Z,39.75
2023-06-28T08:07:16.704Z,39.60
2023-06-28T08:10:19.458Z,39.92
2023-06-28T08:13:24.903Z,38.78
2023-06-28T08:16:29.093Z,38.22
2023-06-28T08:19:31.834Z,37.50
2023-06-28T08:22:35.282Z,37.45
2023-06-28T08:25:38.134Z,37.47
2023-06-28T08:28:54.469Z,37.54
2023-06-28T08:32:03.269Z,37.21
2023-06-28T08:35:09.538Z,37.27
2023-06-28T08:38:12.760Z,37.60
2023-06-28T08:41:18.484Z,37.22
2023-06-28T08:44:24.862Z,37.33
2023-06-28T08:47:31.878Z,37.31
2023-06-28T08:50:35.190Z,37.77
2023-06-28T08:53:45.152Z,37.66
2023-06-28T08:57:05.123Z,37.50
2023-06-28T09:00:14.789Z,38.17
2023-06-28T09:03:20.090Z,38.13
2023-06-28T09:06:23.779Z,38.34
2023-06-28T09:09:29.710Z,38.09
2023-06-28T09:12:33.348Z,37.61
2023-06-28T09:15:39.117Z,36.90
2023-06-28T09:18:43.291Z,35.65
2023-06-28T09:21:46.852Z,34.73
2023-06-28T09:24:51.191Z,34.61
2023-06-28T09:27:54.867Z,34.79
2023-06-28T09:30:58.597Z,34.33
2023-06-28T09:34:05.146Z,33.83
2023-06-28T09:37:08.181Z,34.18
2023-06-28T09:40:17.008Z,34.50
2023-06-28T09:43:19.721Z,34.54
2023-06-28T09:46:23.446Z,34.67
2023-06-28T09:49:28.028Z,34.15
2023-06-28T09:52:37.242Z,33.84
2023-06-28T09:55:41.582Z,32.99
2023-06-28T09:58:47.331Z,32.25
2023-06-28T10:01:53.968Z,32.27
2023-06-28T10:04:58.717Z,31.76
2023-06-28T10:08:13.503Z,31.89
2023-06-28T10:11:17.803Z,32.06
2023-06-28T10:14:22.658Z,31.74
2023-06-28T10:17:26.299Z,32.44
2023-06-28T10:20:31.137Z,31.97
2023-06-28T10:23:36.732Z,32.45
2023-06-28T10:26:39.879Z,32.14
2023-06-28T10:29:45.239Z,31.42
2023-06-28T10:32:48.371Z,31.36
2023-06-28T10:35:54.030Z,31.56
2023-06-28T10:38:56.727Z,31.00
2023-06-28T10:42:00.274Z,31.40
2023-06-28T10:45:04.364Z,31.15
2023-06-28T10:48:09.800Z,30.70
2023-06-28T10:51:21.814Z,31.01
2023-06-28T10:54:24.774Z,30.81
2023-06-28T10:57:38.801Z,30.97
2023-06-28T11:00:46.855Z,30.35
2023-06-28T11:03:49.626Z,30.34
2023-06-28T11:07:12.060Z,30.01
2023-06-28T11:10:18.441Z,30.34
2023-06-28T11:13:33.898Z,30.69
2023-06-28T11:16:37.818Z,30.47
2023-06-28T11:19:42.001Z,30.14
2023-06-28T11:22:53.341Z,30.25
2023-06-28T11:25:57.863Z,30.31
2023-06-28T11:29:00.665Z,30.21
2023-06-28T11:32:04.116Z,30.45
2023-06-28T11:35:10.180Z,30.48
2023-06-28T11:38:16.717Z,30.09
2023-06-28T11:41:19.637Z,30.66
2023-06-28T11:44:22.307Z,30.80
2023-06-28T11:47:28.471Z,31.20
2023-06-28T11:50:31.874Z,31.95
2023-06-28T11:53:35.975Z,32.00
2023-06-28T11:56:40.379Z,31.86
2023-06-28T11:59:51.921Z,31.81
2023-06-28T12:02:54.728Z,31.79
2023-06-28T12:05:58.045Z,31.73
2023-06-28T12:09:02.186Z,31.71
2023-06-28T12:12:06.857Z,31.08
2023-06-28T12:15:14.789Z,31.23
2023-06-28T12:18:20.666Z,31.19
2023-06-28T12:21:23.714Z,30.76
2023-06-28T12:24:28.060Z,30.90
2023-06-28T12:27:32.566Z,30.76
2023-06-28T12:30:35.379Z,30.62
2023-06-28T12:33:38.228Z,30.15
2023-06-28T12:36:43.723Z,30.62
2023-06-28T12:39:48.437Z,30.23
2023-06-28T12:43:21.451Z,30.64
2023-06-28T12:46:24.182Z,30.52
2023-06-28T12:49:41.202Z,30.75
2023-06-28T12:52:43.984Z,30.82
2023-06-28T12:55:50.404Z,31.25
2023-06-28T12:58:53.082Z,31.16
2023-06-28T13:01:55.884Z,31.25
2023-06-28T13:04:58.688Z,31.34
2023-06-28T13:08:04.463Z,31.29
2023-06-28T13:11:16.339Z,31.09
2023-06-28T13:14:21.186Z,31.37
2023-06-28T13:17:24.198Z,31.66
2023-06-28T13:20:28.943Z,31.69
2023-06-28T13:23:33.925Z,32.01
2023-06-28T13:26:37.998Z,32.01
2023-06-28T13:29:40.648Z,32.50
2023-06-28T13:32:46.618Z,32.63
2023-06-28T13:35:49.441Z,32.66
2023-06-28T13:38:52.309Z,32.90
2023-06-28T13:41:56.488Z,32.89
2023-06-28T13:44:59.269Z,33.40
2023-06-28T13:48:02.331Z,33.24
2023-06-28T13:51:05.391Z,32.84
2023-06-28T13:54:08.140Z,32.27
2023-06-28T13:57:15.373Z,32.06
2023-06-28T14:00:18.504Z,31.50
2023-06-28T14:03:21.304Z,31.59
2023-06-28T14:06:24.158Z,31.31
2023-06-28T14:09:27.542Z,31.52
2023-06-28T14:12:31.773Z,31.88
2023-06-28T14:15:34.631Z,32.55
2023-06-28T14:18:37.355Z,32.66
2023-06-28T14:21:40.031Z,32.78
2023-06-28T14:24:42.756Z,32.95
2023-06-28T14:27:47.127Z,33.32
2023-06-28T14:30:49.795Z,32.72
2023-06-28T14:33:52.548Z,32.83
2023-06-28T14:36:55.247Z,31.95
2023-06-28T14:39:58.007Z,31.68
2023-06-28T14:43:02.019Z,31.91
2023-06-28T14:46:04.785Z,32.14
2023-06-28T14:49:08.347Z,32.34
2023-06-28T14:52:11.110Z,32.08
2023-06-28T14:55:13.822Z,32.45
2023-06-28T14:58:18.134Z,32.44
2023-06-28T15:01:21.405Z,32.65
2023-06-28T15:04:24.162Z,33.59
2023-06-28T15:07:27.201Z,33.63
2023-06-28T15:10:29.985Z,34.06
2023-06-28T15:13:34.025Z,34.17
2023-06-28T15:16:37.469Z,34.57
2023-06-28T15:19:40.362Z,34.85
2023-06-28T15:22:43.031Z,34.88
2023-06-28T15:25:45.995Z,34.91
2023-06-28T15:28:50.164Z,34.48
2023-06-28T15:31:52.854Z,34.16
2023-06-28T15:34:55.565Z,33.95
2023-06-28T15:37:58.656Z,34.36
2023-06-28T15:41:02.317Z,34.22
2023-06-28T15:44:06.534Z,34.18
2023-06-28T15:47:09.791Z,34.34
2023-06-28T15:50:12.789Z,34.43
2023-06-28T15:53:15.486Z,34.47
2023-06-28T15:56:18.130Z,34.16
2023-06-28T15:59:22.426Z,34.05
2023-06-28T16:02:25.302Z,33.85
2023-06-28T16:05:28.307Z,33.94
2023-06-28T16:08:31.231Z,34.32
2023-06-28T16:11:34.923Z,34.07
2023-06-28T16:14:39.501Z,33.98
2023-06-28T16:17:43.790Z,33.58
2023-06-28T16:20:46.673Z,33.38
2023-06-28T16:23:49.462Z,33.47
2023-06-28T16:26:52.558Z,33.33
2023-06-28T16:29:57.456Z,33.23
2023-06-28T16:33:00.366Z,33.28
2023-06-28T16:36:04.364Z,33.35
2023-06-28T16:39:07.153Z,33.39
2023-06-28T16:42:10.342Z,33.54
2023-06-28T16:45:14.603Z,33.61
2023-06-28T16:48:17.646Z,33.14
2023-06-28T16:51:21.117Z,32.84
2023-06-28T16:54:25.864Z,33.11
2023-06-28T16:57:28.895Z,33.30
2023-06-28T17:00:33.239Z,33.13
2023-06-28T17:03:40.306Z,33.21
2023-06-28T17:06:43.051Z,33.39
2023-06-28T17:09:46.088Z,33.31
2023-06-28T17:12:48.981Z,33.67
2023-06-28T17:15:53.619Z,34.20
2023-06-28T17:18:56.535Z,34.26
2023-06-28T17:21:59.252Z,34.63
2023-06-28T17:25:02.086Z,34.88
2023-06-28T17:28:05.267Z,35.27
2023-06-28T17:31:09.366Z,34.90
2023-06-28T17:34:12.056Z,35.52
2023-06-28T17:37:14.816Z,35.43
2023-06-28T17:40:17.530Z,35.66
2023-06-28T17:43:20.446Z,35.70
2023-06-28T17:46:24.480Z,35.83
2023-06-28T17:49:27.208Z,35.80
2023-06-28T17:52:29.858Z,35.90
2023-06-28T17:55:34.761Z,35.78
2023-06-28T17:58:38.552Z,36.20
2023-06-28T18:01:42.709Z,36.94
2023-06-28T18:04:45.449Z,37.01
2023-06-28T18:07:50.284Z,37.31
2023-06-28T18:10:54.434Z,36.97
2023-06-28T18:13:57.111Z,37.26
2023-06-28T18:17:02.028Z,38.03
2023-06-28T18:20:05.639Z,38.04
2023-06-28T18:23:08.343Z,37.92
2023-06-28T18:26:11.023Z,38.08
2023-06-28T18:29:13.702Z,39.00
2023-06-28T18:32:17.734Z,40.76
2023-06-28T18:35:20.438Z,40.80
2023-06-28T18:38:25.562Z,40.56
2023-06-28T18:41:30.865Z,39.89
2023-06-28T18:44:44.279Z,40.10
2023-06-28T18:47:48.610Z,40.35
2023-06-28T18:50:54.542Z,40.59
2023-06-28T18:53:57.754Z,42.32
2023-06-28T18:57:00.460Z,43.16
2023-06-28T19:00:06.643Z,43.96
2023-06-28T19:03:13.126Z,44.63
2023-06-28T19:06:15.952Z,45.15
2023-06-28T19:09:18.649Z,45.39
2023-06-28T19:12:21.351Z,45.83
2023-06-28T19:15:24.730Z,45.64
2023-06-28T19:18:29.260Z,45.94
2023-06-28T19:21:32.241Z,45.84
2023-06-28T19:24:34.986Z,45.84
2023-06-28T19:27:37.720Z,45.63
2023-06-28T19:30:40.630Z,45.93
2023-06-28T19:33:44.848Z,46.02
2023-06-28T19:41:04.726Z,46.03
2023-06-28T19:44:07.567Z,45.96
2023-06-28T19:47:10.267Z,46.48
2023-06-28T19:50:14.353Z,46.24
2023-06-28T19:53:17.024Z,46.27
2023-06-28T19:56:20.954Z,46.50
2023-06-28T19:59:23.709Z,46.82
2023-06-28T20:02:26.508Z,47.04
2023-06-28T20:05:30.653Z,47.22
2023-06-28T20:08:33.889Z,47.51
2023-06-28T20:11:36.713Z,47.36
2023-06-28T20:14:39.552Z,47.60
2023-06-28T20:17:42.288Z,48.05
2023-06-28T20:20:47.007Z,47.92
2023-06-28T20:23:50.023Z,48.16
2023-06-28T20:26:53.872Z,48.21
2023-06-28T20:29:57.074Z,48.44
2023-06-28T20:32:59.790Z,48.70
2023-06-28T20:36:04.390Z,48.92
2023-06-28T20:39:07.093Z,49.29
2023-06-28T20:42:10.108Z,49.45
2023-06-28T20:45:12.826Z,49.53
2023-06-28T20:48:15.640Z,50.04
2023-06-28T20:51:21.092Z,50.01
2023-06-28T20:54:23.878Z,50.30
2023-06-28T20:57:26.952Z,50.51
2023-06-28T21:00:29.765Z,50.57
2023-06-28T21:03:32.614Z,50.90
2023-06-28T21:06:36.701Z,51.22
2023-06-28T21:09:43.927Z,51.77
2023-06-28T21:12:46.726Z,52.09
2023-06-28T21:15:49.682Z,52.12
2023-06-28T21:18:52.861Z,52.46
2023-06-28T21:21:56.978Z,52.77
2023-06-28T21:25:00.376Z,52.71
2023-06-28T21:28:03.928Z,52.96
2023-06-28T21:31:06.751Z,53.23
2023-06-28T21:34:09.517Z,53.61
2023-06-28T21:37:13.869Z,53.71
2023-06-28T21:40:16.692Z,53.99
2023-06-28T21:43:19.825Z,54.13
2023-06-28T21:46:22.606Z,54.55
2023-06-28T21:49:25.465Z,54.52
2023-06-28T21:52:29.533Z,54.90
2023-06-28T21:55:32.194Z,55.31
2023-06-28T21:58:37.689Z,55.30
2023-06-28T22:01:40.612Z,55.71
2023-06-28T22:04:43.434Z,55.88
2023-06-28T22:07:50.129Z,56.33
2023-06-28T22:10:55.650Z,56.70
2023-06-28T22:14:04.945Z,56.88
2023-06-28T22:17:07.729Z,56.94
2023-06-28T22:20:12.111Z,57.21
2023-06-28T22:23:17.458Z,57.26
2023-06-28T22:26:22.173Z,57.55
2023-06-28T22:29:24.913Z,57.95
2023-06-28T22:32:27.684Z,57.77
2023-06-28T22:35:30.399Z,57.89
2023-06-28T22:38:47.748Z,58.31
2023-06-28T22:41:54.403Z,58.32
2023-06-28T22:44:58.038Z,58.89
2023-06-28T22:48:03.444Z,58.97
2023-06-28T22:51:06.979Z,59.49
2023-06-28T22:54:15.276Z,59.29
2023-06-28T22:57:18.017Z,59.34
2023-06-28T23:00:20.897Z,60.09
2023-06-28T23:03:25.354Z,60.24
2023-06-28T23:06:28.320Z,60.49
2023-06-28T23:09:32.363Z,60.34
2023-06-28T23:12:38.340Z,60.49
2023-06-28T23:15:41.242Z,61.17
2023-06-28T23:18:48.283Z,61.12
2023-06-28T23:21:50.944Z,61.17
2023-06-28T23:24:55.550Z,61.56
2023-06-28T23:27:58.762Z,61.61
2023-06-28T23:31:02.156Z,62.25
2023-06-28T23:34:05.037Z,62.36
2023-06-28T23:37:08.415Z,62.46
2023-06-28T23:40:14.154Z,62.50
2023-06-28T23:43:17.269Z,62.53
2023-06-28T23:46:19.909Z,63.05
2023-06-28T23:49:24.095Z,63.41
2023-06-28T23:52:30.245Z,63.54
2023-06-28T23:55:35.194Z,63.38
2023-06-28T23:58:38.806Z,63.97
